sensor_id;sensor_type;location;lat;lon;timestamp;temperature;humidity
22008;DHT22;11168;56.976;24.168;2023-12-14T00:01:30;-0.20;99.90
22008;DHT22;11168;56.976;24.168;2023-12-14T00:03:57;-0.20;99.90
22008;DHT22;11168;56.976;24.168;2023-12-14T00:06:27;-0.20;99.90
22008;DHT22;11168;56.976;24.168;2023-12-14T00:08:55;-0.20;99.90
22008;DHT22;11168;56.976;24.168;2023-12-14T00:11:22;-0.20;99.90
22008;DHT22;11168;56.976;24.168;2023-12-14T00:13:49;-0.20;99.90
22008;DHT22;11168;56.976;24.168;2023-12-14T00:16:16;-0.20;99.90
22008;DHT22;11168;56.976;24.168;2023-12-14T00:18:43;-0.20;99.90
22008;DHT22;11168;56.976;24.168;2023-12-14T00:21:10;-0.20;99.90
22008;DHT22;11168;56.976;24.168;2023-12-14T00:23:37;-0.20;99.90
22008;DHT22;11168;56.976;24.168;2023-12-14T00:26:04;-0.20;99.90
22008;DHT22;11168;56.976;24.168;2023-12-14T00:28:32;-0.10;99.90
22008;DHT22;11168;56.976;24.168;2023-12-14T00:31:00;-0.10;99.90
22008;DHT22;11168;56.976;24.168;2023-12-14T00:33:28;-0.10;99.90
22008;DHT22;11168;56.976;24.168;2023-12-14T00:35:56;-0.10;99.90
22008;DHT22;11168;56.976;24.168;2023-12-14T00:38:23;-0.20;99.90
22008;DHT22;11168;56.976;24.168;2023-12-14T00:40:50;-0.10;99.90
22008;DHT22;11168;56.976;24.168;2023-12-14T00:43:17;-0.10;99.90
22008;DHT22;11168;56.976;24.168;2023-12-14T00:45:44;0.00;99.90
22008;DHT22;11168;56.976;24.168;2023-12-14T00:48:12;-0.10;99.90
22008;DHT22;11168;56.976;24.168;2023-12-14T00:50:39;-0.10;99.90
22008;DHT22;11168;56.976;24.168;2023-12-14T00:53:06;-0.10;99.90
22008;DHT22;11168;56.976;24.168;2023-12-14T00:55:36;-0.10;99.90
22008;DHT22;11168;56.976;24.168;2023-12-14T00:58:03;-0.10;99.90
22008;DHT22;11168;56.976;24.168;2023-12-14T01:00:30;-0.10;99.90
22008;DHT22;11168;56.976;24.168;2023-12-14T01:02:58;-0.10;99.90
22008;DHT22;11168;56.976;24.168;2023-12-14T01:05:25;-0.10;99.90
22008;DHT22;11168;56.976;24.168;2023-12-14T01:07:52;-0.10;99.90
22008;DHT22;11168;56.976;24.168;2023-12-14T01:10:19;-0.10;99.90
22008;DHT22;11168;56.976;24.168;2023-12-14T01:12:49;-0.10;99.90
22008;DHT22;11168;56.976;24.168;2023-12-14T01:15:19;-0.10;99.90
22008;DHT22;11168;56.976;24.168;2023-12-14T01:17:51;-0.10;99.90
22008;DHT22;11168;56.976;24.168;2023-12-14T01:20:18;-0.10;99.90
22008;DHT22;11168;56.976;24.168;2023-12-14T01:22:47;-0.10;99.90
22008;DHT22;11168;56.976;24.168;2023-12-14T01:25:15;-0.10;99.90
22008;DHT22;11168;56.976;24.168;2023-12-14T01:27:42;-0.10;99.90
22008;DHT22;11168;56.976;24.168;2023-12-14T01:30:09;-0.10;99.90
22008;DHT22;11168;56.976;24.168;2023-12-14T01:32:36;-0.10;99.90
22008;DHT22;11168;56.976;24.168;2023-12-14T01:35:05;-0.10;99.90
22008;DHT22;11168;56.976;24.168;2023-12-14T01:37:32;-0.10;99.90
22008;DHT22;11168;56.976;24.168;2023-12-14T01:39:59;-0.20;99.90
22008;DHT22;11168;56.976;24.168;2023-12-14T01:42:26;-0.20;99.90
22008;DHT22;11168;56.976;24.168;2023-12-14T01:44:54;-0.20;99.90
22008;DHT22;11168;56.976;24.168;2023-12-14T01:47:21;-0.20;99.90
22008;DHT22;11168;56.976;24.168;2023-12-14T01:49:50;-0.30;99.90
22008;DHT22;11168;56.976;24.168;2023-12-14T01:52:17;-0.30;99.90
22008;DHT22;11168;56.976;24.168;2023-12-14T01:54:46;-0.30;99.90
22008;DHT22;11168;56.976;24.168;2023-12-14T01:57:13;-0.30;99.90
22008;DHT22;11168;56.976;24.168;2023-12-14T01:59:43;-0.30;99.90
22008;DHT22;11168;56.976;24.168;2023-12-14T02:02:11;-0.40;99.90
22008;DHT22;11168;56.976;24.168;2023-12-14T02:04:38;-0.40;99.90
22008;DHT22;11168;56.976;24.168;2023-12-14T02:07:06;-0.40;99.90
22008;DHT22;11168;56.976;24.168;2023-12-14T02:09:33;-0.40;99.90
22008;DHT22;11168;56.976;24.168;2023-12-14T02:12:00;-0.40;99.90
22008;DHT22;11168;56.976;24.168;2023-12-14T02:14:27;-0.40;99.90
22008;DHT22;11168;56.976;24.168;2023-12-14T02:16:54;-0.40;99.90
22008;DHT22;11168;56.976;24.168;2023-12-14T02:19:21;-0.40;99.90
22008;DHT22;11168;56.976;24.168;2023-12-14T02:21:49;-0.40;99.90
22008;DHT22;11168;56.976;24.168;2023-12-14T02:24:16;-0.40;99.90
22008;DHT22;11168;56.976;24.168;2023-12-14T02:26:43;-0.40;99.90
22008;DHT22;11168;56.976;24.168;2023-12-14T02:29:29;-0.40;99.90
22008;DHT22;11168;56.976;24.168;2023-12-14T02:31:56;-0.40;99.90
22008;DHT22;11168;56.976;24.168;2023-12-14T02:34:24;-0.40;99.90
22008;DHT22;11168;56.976;24.168;2023-12-14T02:36:52;-0.40;99.90
22008;DHT22;11168;56.976;24.168;2023-12-14T02:39:22;-0.40;99.90
22008;DHT22;11168;56.976;24.168;2023-12-14T02:41:49;-0.30;99.90
22008;DHT22;11168;56.976;24.168;2023-12-14T02:44:16;-0.40;99.90
22008;DHT22;11168;56.976;24.168;2023-12-14T02:46:44;-0.30;99.90
22008;DHT22;11168;56.976;24.168;2023-12-14T02:49:11;-0.30;99.90
22008;DHT22;11168;56.976;24.168;2023-12-14T02:51:39;-0.30;99.90
22008;DHT22;11168;56.976;24.168;2023-12-14T02:54:06;-0.30;99.90
22008;DHT22;11168;56.976;24.168;2023-12-14T02:56:33;-0.30;99.90
22008;DHT22;11168;56.976;24.168;2023-12-14T02:59:00;-0.30;99.90
22008;DHT22;11168;56.976;24.168;2023-12-14T03:01:27;-0.30;99.90
22008;DHT22;11168;56.976;24.168;2023-12-14T03:03:54;-0.30;99.90
22008;DHT22;11168;56.976;24.168;2023-12-14T03:06:22;-0.30;99.90
22008;DHT22;11168;56.976;24.168;2023-12-14T03:08:51;-0.20;99.90
22008;DHT22;11168;56.976;24.168;2023-12-14T03:11:22;-0.20;99.90
22008;DHT22;11168;56.976;24.168;2023-12-14T03:13:52;-0.20;99.90
22008;DHT22;11168;56.976;24.168;2023-12-14T03:16:19;-0.20;99.90
22008;DHT22;11168;56.976;24.168;2023-12-14T03:18:48;-0.20;99.90
22008;DHT22;11168;56.976;24.168;2023-12-14T03:21:20;-0.20;99.90
22008;DHT22;11168;56.976;24.168;2023-12-14T03:23:47;-0.20;99.90
22008;DHT22;11168;56.976;24.168;2023-12-14T03:26:14;-0.10;99.90
22008;DHT22;11168;56.976;24.168;2023-12-14T03:28:42;-0.10;99.90
22008;DHT22;11168;56.976;24.168;2023-12-14T03:31:10;-0.10;99.90
22008;DHT22;11168;56.976;24.168;2023-12-14T03:33:39;-0.20;99.90
22008;DHT22;11168;56.976;24.168;2023-12-14T03:36:06;-0.10;99.90
22008;DHT22;11168;56.976;24.168;2023-12-14T03:38:34;-0.10;99.90
22008;DHT22;11168;56.976;24.168;2023-12-14T03:41:01;-0.10;99.90
22008;DHT22;11168;56.976;24.168;2023-12-14T03:43:28;-0.10;99.90
22008;DHT22;11168;56.976;24.168;2023-12-14T03:45:55;0.00;99.90
22008;DHT22;11168;56.976;24.168;2023-12-14T03:48:22;-0.10;99.90
22008;DHT22;11168;56.976;24.168;2023-12-14T03:50:50;0.00;99.90
22008;DHT22;11168;56.976;24.168;2023-12-14T03:53:18;0.10;99.90
22008;DHT22;11168;56.976;24.168;2023-12-14T03:55:49;0.00;99.90
22008;DHT22;11168;56.976;24.168;2023-12-14T03:58:16;0.00;99.90
22008;DHT22;11168;56.976;24.168;2023-12-14T04:00:43;0.10;99.90
22008;DHT22;11168;56.976;24.168;2023-12-14T04:03:11;0.00;99.90
22008;DHT22;11168;56.976;24.168;2023-12-14T04:05:38;0.00;99.90
22008;DHT22;11168;56.976;24.168;2023-12-14T04:08:06;-0.10;99.90
22008;DHT22;11168;56.976;24.168;2023-12-14T04:10:33;-0.20;99.90
22008;DHT22;11168;56.976;24.168;2023-12-14T04:13:01;-0.20;99.90
22008;DHT22;11168;56.976;24.168;2023-12-14T04:15:28;-0.20;99.90
22008;DHT22;11168;56.976;24.168;2023-12-14T04:17:57;-0.20;99.90
22008;DHT22;11168;56.976;24.168;2023-12-14T04:20:25;-0.30;99.90
22008;DHT22;11168;56.976;24.168;2023-12-14T04:22:55;-0.40;99.90
22008;DHT22;11168;56.976;24.168;2023-12-14T04:25:24;-0.30;99.90
22008;DHT22;11168;56.976;24.168;2023-12-14T04:27:51;-0.30;99.90
22008;DHT22;11168;56.976;24.168;2023-12-14T04:30:18;-0.40;99.90
22008;DHT22;11168;56.976;24.168;2023-12-14T04:32:45;-0.40;99.90
22008;DHT22;11168;56.976;24.168;2023-12-14T04:35:14;-0.40;99.90
22008;DHT22;11168;56.976;24.168;2023-12-14T04:37:41;-0.40;99.90
22008;DHT22;11168;56.976;24.168;2023-12-14T04:40:11;-0.50;99.90
22008;DHT22;11168;56.976;24.168;2023-12-14T04:42:40;-0.50;99.90
22008;DHT22;11168;56.976;24.168;2023-12-14T04:45:08;-0.50;99.90
22008;DHT22;11168;56.976;24.168;2023-12-14T04:47:36;-0.50;99.90
22008;DHT22;11168;56.976;24.168;2023-12-14T04:50:03;-0.40;99.90
22008;DHT22;11168;56.976;24.168;2023-12-14T04:52:31;-0.40;99.90
22008;DHT22;11168;56.976;24.168;2023-12-14T04:54:58;-0.40;99.90
22008;DHT22;11168;56.976;24.168;2023-12-14T04:57:26;-0.40;99.90
22008;DHT22;11168;56.976;24.168;2023-12-14T04:59:53;-0.30;99.90
22008;DHT22;11168;56.976;24.168;2023-12-14T05:02:22;-0.30;99.90
22008;DHT22;11168;56.976;24.168;2023-12-14T05:04:49;-0.30;99.90
22008;DHT22;11168;56.976;24.168;2023-12-14T05:07:16;-0.30;99.90
22008;DHT22;11168;56.976;24.168;2023-12-14T05:09:43;-0.30;99.90
22008;DHT22;11168;56.976;24.168;2023-12-14T05:12:13;-0.30;99.90
22008;DHT22;11168;56.976;24.168;2023-12-14T05:14:40;-0.20;99.90
22008;DHT22;11168;56.976;24.168;2023-12-14T05:17:07;-0.20;99.90
22008;DHT22;11168;56.976;24.168;2023-12-14T05:19:36;-0.20;99.90
22008;DHT22;11168;56.976;24.168;2023-12-14T05:22:09;-0.20;99.90
22008;DHT22;11168;56.976;24.168;2023-12-14T05:24:36;-0.20;99.90
22008;DHT22;11168;56.976;24.168;2023-12-14T05:27:04;-0.10;99.90
22008;DHT22;11168;56.976;24.168;2023-12-14T05:29:33;-0.10;99.90
22008;DHT22;11168;56.976;24.168;2023-12-14T05:32:01;-0.10;99.90
22008;DHT22;11168;56.976;24.168;2023-12-14T05:34:30;0.00;99.90
22008;DHT22;11168;56.976;24.168;2023-12-14T05:36:58;0.00;99.90
22008;DHT22;11168;56.976;24.168;2023-12-14T05:39:29;0.00;99.90
22008;DHT22;11168;56.976;24.168;2023-12-14T05:41:59;0.10;99.90
22008;DHT22;11168;56.976;24.168;2023-12-14T05:44:28;0.00;99.90
22008;DHT22;11168;56.976;24.168;2023-12-14T05:46:56;0.00;99.90
22008;DHT22;11168;56.976;24.168;2023-12-14T05:49:23;0.00;99.90
22008;DHT22;11168;56.976;24.168;2023-12-14T05:51:50;0.00;99.90
22008;DHT22;11168;56.976;24.168;2023-12-14T05:54:17;-0.10;99.90
22008;DHT22;11168;56.976;24.168;2023-12-14T05:56:45;0.00;99.90
22008;DHT22;11168;56.976;24.168;2023-12-14T05:59:14;0.00;99.90
22008;DHT22;11168;56.976;24.168;2023-12-14T06:01:42;0.00;99.90
22008;DHT22;11168;56.976;24.168;2023-12-14T06:04:11;-0.10;99.90
22008;DHT22;11168;56.976;24.168;2023-12-14T06:06:39;-0.10;99.90
22008;DHT22;11168;56.976;24.168;2023-12-14T06:09:07;-0.10;99.90
22008;DHT22;11168;56.976;24.168;2023-12-14T06:11:40;-0.10;99.90
22008;DHT22;11168;56.976;24.168;2023-12-14T06:14:08;-0.10;99.90
22008;DHT22;11168;56.976;24.168;2023-12-14T06:16:37;-0.10;99.90
22008;DHT22;11168;56.976;24.168;2023-12-14T06:19:06;-0.20;99.90
22008;DHT22;11168;56.976;24.168;2023-12-14T06:21:36;-0.20;99.90
22008;DHT22;11168;56.976;24.168;2023-12-14T06:24:03;-0.20;99.90
22008;DHT22;11168;56.976;24.168;2023-12-14T06:26:30;-0.30;99.90
22008;DHT22;11168;56.976;24.168;2023-12-14T06:28:58;-0.30;99.90
22008;DHT22;11168;56.976;24.168;2023-12-14T06:31:28;-0.20;99.90
22008;DHT22;11168;56.976;24.168;2023-12-14T06:33:55;-0.20;99.90
22008;DHT22;11168;56.976;24.168;2023-12-14T06:36:29;-0.20;99.90
22008;DHT22;11168;56.976;24.168;2023-12-14T06:39:00;-0.20;99.90
22008;DHT22;11168;56.976;24.168;2023-12-14T06:41:28;-0.20;99.90
22008;DHT22;11168;56.976;24.168;2023-12-14T06:43:55;-0.10;99.90
22008;DHT22;11168;56.976;24.168;2023-12-14T06:46:24;-0.10;99.90
22008;DHT22;11168;56.976;24.168;2023-12-14T06:48:51;-0.20;99.90
22008;DHT22;11168;56.976;24.168;2023-12-14T06:51:22;-0.20;99.90
22008;DHT22;11168;56.976;24.168;2023-12-14T06:53:49;-0.20;99.90
22008;DHT22;11168;56.976;24.168;2023-12-14T06:56:17;-0.20;99.90
22008;DHT22;11168;56.976;24.168;2023-12-14T06:58:44;-0.30;99.90
22008;DHT22;11168;56.976;24.168;2023-12-14T07:01:16;-0.30;99.90
22008;DHT22;11168;56.976;24.168;2023-12-14T07:03:45;-0.30;99.90
22008;DHT22;11168;56.976;24.168;2023-12-14T07:06:16;-0.30;99.90
22008;DHT22;11168;56.976;24.168;2023-12-14T07:08:47;-0.20;99.90
22008;DHT22;11168;56.976;24.168;2023-12-14T07:11:14;-0.20;99.90
22008;DHT22;11168;56.976;24.168;2023-12-14T07:13:42;-0.20;99.90
22008;DHT22;11168;56.976;24.168;2023-12-14T07:16:10;-0.20;99.90
22008;DHT22;11168;56.976;24.168;2023-12-14T07:18:40;-0.10;99.90
22008;DHT22;11168;56.976;24.168;2023-12-14T07:21:08;-0.20;99.90
22008;DHT22;11168;56.976;24.168;2023-12-14T07:23:36;-0.20;99.90
22008;DHT22;11168;56.976;24.168;2023-12-14T07:26:06;-0.10;99.90
22008;DHT22;11168;56.976;24.168;2023-12-14T07:28:34;-0.10;99.90
22008;DHT22;11168;56.976;24.168;2023-12-14T07:31:05;-0.10;99.90
22008;DHT22;11168;56.976;24.168;2023-12-14T07:33:32;0.00;99.90
22008;DHT22;11168;56.976;24.168;2023-12-14T07:36:02;0.00;99.90
22008;DHT22;11168;56.976;24.168;2023-12-14T07:38:29;0.00;99.90
22008;DHT22;11168;56.976;24.168;2023-12-14T07:40:56;0.10;99.90
22008;DHT22;11168;56.976;24.168;2023-12-14T07:43:24;0.10;99.90
22008;DHT22;11168;56.976;24.168;2023-12-14T07:45:51;0.00;99.90
22008;DHT22;11168;56.976;24.168;2023-12-14T07:48:18;0.10;99.90
22008;DHT22;11168;56.976;24.168;2023-12-14T07:50:46;0.10;99.90
22008;DHT22;11168;56.976;24.168;2023-12-14T07:53:16;0.20;99.90
22008;DHT22;11168;56.976;24.168;2023-12-14T07:55:44;0.20;99.90
22008;DHT22;11168;56.976;24.168;2023-12-14T07:58:11;0.20;99.90
22008;DHT22;11168;56.976;24.168;2023-12-14T08:00:38;0.20;99.90
22008;DHT22;11168;56.976;24.168;2023-12-14T08:03:06;0.20;99.90
22008;DHT22;11168;56.976;24.168;2023-12-14T08:05:37;0.10;99.90
22008;DHT22;11168;56.976;24.168;2023-12-14T08:08:07;0.10;99.90
22008;DHT22;11168;56.976;24.168;2023-12-14T08:10:34;0.10;99.90
22008;DHT22;11168;56.976;24.168;2023-12-14T08:13:02;0.10;99.90
22008;DHT22;11168;56.976;24.168;2023-12-14T08:15:30;0.10;99.90
22008;DHT22;11168;56.976;24.168;2023-12-14T08:17:57;0.20;99.90
22008;DHT22;11168;56.976;24.168;2023-12-14T08:20:25;0.20;99.90
22008;DHT22;11168;56.976;24.168;2023-12-14T08:22:52;0.30;99.90
22008;DHT22;11168;56.976;24.168;2023-12-14T08:25:19;0.30;99.90
22008;DHT22;11168;56.976;24.168;2023-12-14T08:27:48;0.30;99.90
22008;DHT22;11168;56.976;24.168;2023-12-14T08:30:18;0.30;99.90
22008;DHT22;11168;56.976;24.168;2023-12-14T08:32:50;0.40;99.90
22008;DHT22;11168;56.976;24.168;2023-12-14T08:35:17;0.40;99.90
22008;DHT22;11168;56.976;24.168;2023-12-14T08:37:46;0.40;99.90
22008;DHT22;11168;56.976;24.168;2023-12-14T08:40:14;0.40;99.90
22008;DHT22;11168;56.976;24.168;2023-12-14T08:42:41;0.50;99.90
22008;DHT22;11168;56.976;24.168;2023-12-14T08:45:08;0.50;99.90
22008;DHT22;11168;56.976;24.168;2023-12-14T08:47:39;0.50;99.90
22008;DHT22;11168;56.976;24.168;2023-12-14T08:50:07;0.60;99.90
22008;DHT22;11168;56.976;24.168;2023-12-14T08:52:35;0.60;99.90
22008;DHT22;11168;56.976;24.168;2023-12-14T08:55:03;0.70;99.90
22008;DHT22;11168;56.976;24.168;2023-12-14T08:57:31;0.70;99.90
22008;DHT22;11168;56.976;24.168;2023-12-14T08:59:58;0.70;99.90
22008;DHT22;11168;56.976;24.168;2023-12-14T09:02:26;0.70;99.90
22008;DHT22;11168;56.976;24.168;2023-12-14T09:04:54;0.70;99.90
22008;DHT22;11168;56.976;24.168;2023-12-14T09:07:21;0.80;99.90
22008;DHT22;11168;56.976;24.168;2023-12-14T09:09:48;0.80;99.90
22008;DHT22;11168;56.976;24.168;2023-12-14T09:12:15;0.80;99.90
22008;DHT22;11168;56.976;24.168;2023-12-14T09:14:43;0.80;99.90
22008;DHT22;11168;56.976;24.168;2023-12-14T09:17:10;0.90;99.90
22008;DHT22;11168;56.976;24.168;2023-12-14T09:19:38;0.90;99.90
22008;DHT22;11168;56.976;24.168;2023-12-14T09:22:05;0.90;99.90
22008;DHT22;11168;56.976;24.168;2023-12-14T09:24:33;1.00;99.90
22008;DHT22;11168;56.976;24.168;2023-12-14T09:27:00;0.90;99.90
22008;DHT22;11168;56.976;24.168;2023-12-14T09:29:27;1.00;99.90
22008;DHT22;11168;56.976;24.168;2023-12-14T09:31:54;1.00;99.90
22008;DHT22;11168;56.976;24.168;2023-12-14T09:34:22;1.00;99.90
22008;DHT22;11168;56.976;24.168;2023-12-14T09:36:49;1.10;99.90
22008;DHT22;11168;56.976;24.168;2023-12-14T09:39:18;1.10;99.90
22008;DHT22;11168;56.976;24.168;2023-12-14T09:41:46;1.10;99.90
22008;DHT22;11168;56.976;24.168;2023-12-14T09:44:14;1.20;99.90
22008;DHT22;11168;56.976;24.168;2023-12-14T09:46:41;1.10;99.90
22008;DHT22;11168;56.976;24.168;2023-12-14T09:49:16;1.20;99.90
22008;DHT22;11168;56.976;24.168;2023-12-14T09:51:46;1.20;99.90
22008;DHT22;11168;56.976;24.168;2023-12-14T09:54:13;1.20;99.90
22008;DHT22;11168;56.976;24.168;2023-12-14T09:56:47;1.20;99.90
22008;DHT22;11168;56.976;24.168;2023-12-14T09:59:15;1.30;99.90
22008;DHT22;11168;56.976;24.168;2023-12-14T10:01:43;1.30;99.90
22008;DHT22;11168;56.976;24.168;2023-12-14T10:04:17;1.40;99.90
22008;DHT22;11168;56.976;24.168;2023-12-14T10:06:46;1.40;99.90
22008;DHT22;11168;56.976;24.168;2023-12-14T10:09:15;1.40;99.90
22008;DHT22;11168;56.976;24.168;2023-12-14T10:11:45;1.50;99.90
22008;DHT22;11168;56.976;24.168;2023-12-14T10:14:24;1.60;99.90
22008;DHT22;11168;56.976;24.168;2023-12-14T10:16:53;1.60;99.90
22008;DHT22;11168;56.976;24.168;2023-12-14T10:19:28;1.70;99.90
22008;DHT22;11168;56.976;24.168;2023-12-14T10:21:56;1.80;99.90
22008;DHT22;11168;56.976;24.168;2023-12-14T10:24:23;1.80;99.90
22008;DHT22;11168;56.976;24.168;2023-12-14T10:26:51;1.80;99.90
22008;DHT22;11168;56.976;24.168;2023-12-14T10:29:18;1.80;99.90
22008;DHT22;11168;56.976;24.168;2023-12-14T10:31:46;1.90;99.90
22008;DHT22;11168;56.976;24.168;2023-12-14T10:34:14;1.90;99.90
22008;DHT22;11168;56.976;24.168;2023-12-14T10:36:43;1.90;99.90
22008;DHT22;11168;56.976;24.168;2023-12-14T10:39:12;1.90;99.90
22008;DHT22;11168;56.976;24.168;2023-12-14T10:41:44;1.90;99.90
22008;DHT22;11168;56.976;24.168;2023-12-14T10:44:21;1.80;99.90
22008;DHT22;11168;56.976;24.168;2023-12-14T10:47:12;1.80;99.90
22008;DHT22;11168;56.976;24.168;2023-12-14T10:49:43;2.30;99.90
22008;DHT22;11168;56.976;24.168;2023-12-14T10:52:16;3.80;99.90
22008;DHT22;11168;56.976;24.168;2023-12-14T10:54:45;5.30;99.90
22008;DHT22;11168;56.976;24.168;2023-12-14T10:57:13;6.60;99.90
22008;DHT22;11168;56.976;24.168;2023-12-14T10:59:43;7.40;99.90
22008;DHT22;11168;56.976;24.168;2023-12-14T11:02:11;8.60;99.90
22008;DHT22;11168;56.976;24.168;2023-12-14T11:05:01;9.30;99.90
22008;DHT22;11168;56.976;24.168;2023-12-14T11:10:15;9.40;99.90
22008;DHT22;11168;56.976;24.168;2023-12-14T11:13:04;9.00;99.90
22008;DHT22;11168;56.976;24.168;2023-12-14T11:15:35;9.00;99.90
22008;DHT22;11168;56.976;24.168;2023-12-14T11:25:57;8.80;99.90
22008;DHT22;11168;56.976;24.168;2023-12-14T11:28:27;8.90;99.90
22008;DHT22;11168;56.976;24.168;2023-12-14T11:30:57;8.60;99.90
22008;DHT22;11168;56.976;24.168;2023-12-14T11:33:26;7.50;99.90
22008;DHT22;11168;56.976;24.168;2023-12-14T11:35:56;6.80;99.90
22008;DHT22;11168;56.976;24.168;2023-12-14T11:38:29;6.10;99.90
22008;DHT22;11168;56.976;24.168;2023-12-14T11:40:58;5.60;99.90
22008;DHT22;11168;56.976;24.168;2023-12-14T11:43:26;5.00;99.90
22008;DHT22;11168;56.976;24.168;2023-12-14T11:45:56;4.70;99.90
22008;DHT22;11168;56.976;24.168;2023-12-14T11:48:26;4.30;99.90
22008;DHT22;11168;56.976;24.168;2023-12-14T11:50:54;4.00;99.90
22008;DHT22;11168;56.976;24.168;2023-12-14T11:53:24;3.80;99.90
22008;DHT22;11168;56.976;24.168;2023-12-14T11:55:51;3.70;99.90
22008;DHT22;11168;56.976;24.168;2023-12-14T11:58:19;3.70;99.90
22008;DHT22;11168;56.976;24.168;2023-12-14T12:00:49;3.80;99.90
22008;DHT22;11168;56.976;24.168;2023-12-14T12:03:18;3.90;99.90
22008;DHT22;11168;56.976;24.168;2023-12-14T12:05:51;3.80;99.90
22008;DHT22;11168;56.976;24.168;2023-12-14T12:08:21;3.50;99.90
22008;DHT22;11168;56.976;24.168;2023-12-14T12:10:49;3.30;99.90
22008;DHT22;11168;56.976;24.168;2023-12-14T12:13:20;3.10;99.90
22008;DHT22;11168;56.976;24.168;2023-12-14T12:15:48;2.90;99.90
22008;DHT22;11168;56.976;24.168;2023-12-14T12:18:16;2.70;99.90
22008;DHT22;11168;56.976;24.168;2023-12-14T12:20:44;2.70;99.90
22008;DHT22;11168;56.976;24.168;2023-12-14T12:23:11;2.70;99.90
22008;DHT22;11168;56.976;24.168;2023-12-14T12:25:38;2.50;99.90
22008;DHT22;11168;56.976;24.168;2023-12-14T12:28:07;2.50;99.90
22008;DHT22;11168;56.976;24.168;2023-12-14T12:30:34;2.50;99.90
22008;DHT22;11168;56.976;24.168;2023-12-14T12:33:07;2.50;99.90
22008;DHT22;11168;56.976;24.168;2023-12-14T12:35:38;2.30;99.90
22008;DHT22;11168;56.976;24.168;2023-12-14T12:38:05;2.30;99.90
22008;DHT22;11168;56.976;24.168;2023-12-14T12:40:32;2.30;99.90
22008;DHT22;11168;56.976;24.168;2023-12-14T12:43:02;2.20;99.90
22008;DHT22;11168;56.976;24.168;2023-12-14T12:45:30;2.10;99.90
22008;DHT22;11168;56.976;24.168;2023-12-14T12:47:59;2.10;99.90
22008;DHT22;11168;56.976;24.168;2023-12-14T12:50:26;2.10;99.90
22008;DHT22;11168;56.976;24.168;2023-12-14T12:52:55;2.00;99.90
22008;DHT22;11168;56.976;24.168;2023-12-14T12:55:22;1.90;99.90
22008;DHT22;11168;56.976;24.168;2023-12-14T12:57:51;1.80;99.90
22008;DHT22;11168;56.976;24.168;2023-12-14T13:00:18;1.80;99.90
22008;DHT22;11168;56.976;24.168;2023-12-14T13:02:46;1.80;99.90
22008;DHT22;11168;56.976;24.168;2023-12-14T13:05:15;1.70;99.90
22008;DHT22;11168;56.976;24.168;2023-12-14T13:07:45;1.60;99.90
22008;DHT22;11168;56.976;24.168;2023-12-14T13:10:18;1.50;99.90
22008;DHT22;11168;56.976;24.168;2023-12-14T13:12:57;1.50;99.90
22008;DHT22;11168;56.976;24.168;2023-12-14T13:15:25;1.40;99.90
22008;DHT22;11168;56.976;24.168;2023-12-14T13:17:55;1.20;99.90
22008;DHT22;11168;56.976;24.168;2023-12-14T13:20:23;1.20;99.90
22008;DHT22;11168;56.976;24.168;2023-12-14T13:22:56;1.10;99.90
22008;DHT22;11168;56.976;24.168;2023-12-14T13:25:23;1.10;99.90
22008;DHT22;11168;56.976;24.168;2023-12-14T13:27:53;1.00;99.90
22008;DHT22;11168;56.976;24.168;2023-12-14T13:30:21;1.00;99.90
22008;DHT22;11168;56.976;24.168;2023-12-14T13:32:51;0.80;99.90
22008;DHT22;11168;56.976;24.168;2023-12-14T13:35:21;0.80;99.90
22008;DHT22;11168;56.976;24.168;2023-12-14T13:37:49;0.70;99.90
22008;DHT22;11168;56.976;24.168;2023-12-14T13:40:17;0.60;99.90
22008;DHT22;11168;56.976;24.168;2023-12-14T13:42:45;0.60;99.90
22008;DHT22;11168;56.976;24.168;2023-12-14T13:45:29;0.50;99.90
22008;DHT22;11168;56.976;24.168;2023-12-14T13:47:57;0.50;99.90
22008;DHT22;11168;56.976;24.168;2023-12-14T13:50:26;0.40;99.90
22008;DHT22;11168;56.976;24.168;2023-12-14T13:52:55;0.30;99.90
22008;DHT22;11168;56.976;24.168;2023-12-14T13:55:22;0.30;99.90
22008;DHT22;11168;56.976;24.168;2023-12-14T13:57:50;0.20;99.90
22008;DHT22;11168;56.976;24.168;2023-12-14T14:00:19;0.20;99.90
22008;DHT22;11168;56.976;24.168;2023-12-14T14:02:46;0.20;99.90
22008;DHT22;11168;56.976;24.168;2023-12-14T14:05:13;0.10;99.90
22008;DHT22;11168;56.976;24.168;2023-12-14T14:07:41;0.10;99.90
22008;DHT22;11168;56.976;24.168;2023-12-14T14:10:09;0.00;99.90
22008;DHT22;11168;56.976;24.168;2023-12-14T14:12:36;0.00;99.90
22008;DHT22;11168;56.976;24.168;2023-12-14T14:15:04;0.50;99.90
22008;DHT22;11168;56.976;24.168;2023-12-14T14:17:32;0.20;99.90
22008;DHT22;11168;56.976;24.168;2023-12-14T14:19:59;0.10;99.90
22008;DHT22;11168;56.976;24.168;2023-12-14T14:22:26;0.00;99.90
22008;DHT22;11168;56.976;24.168;2023-12-14T14:24:53;0.00;99.90
22008;DHT22;11168;56.976;24.168;2023-12-14T14:27:22;-0.10;99.90
22008;DHT22;11168;56.976;24.168;2023-12-14T14:29:50;-0.20;99.90
22008;DHT22;11168;56.976;24.168;2023-12-14T14:32:23;-0.20;99.90
22008;DHT22;11168;56.976;24.168;2023-12-14T14:34:53;-0.20;99.90
22008;DHT22;11168;56.976;24.168;2023-12-14T14:37:22;-0.30;99.90
22008;DHT22;11168;56.976;24.168;2023-12-14T14:39:49;-0.30;99.90
22008;DHT22;11168;56.976;24.168;2023-12-14T14:42:19;-0.30;99.90
22008;DHT22;11168;56.976;24.168;2023-12-14T14:44:46;-0.40;99.90
22008;DHT22;11168;56.976;24.168;2023-12-14T14:47:14;-0.50;99.90
22008;DHT22;11168;56.976;24.168;2023-12-14T14:49:41;-0.50;99.90
22008;DHT22;11168;56.976;24.168;2023-12-14T14:52:10;-0.50;99.90
22008;DHT22;11168;56.976;24.168;2023-12-14T14:54:37;-0.50;99.90
22008;DHT22;11168;56.976;24.168;2023-12-14T14:57:06;-0.60;99.90
22008;DHT22;11168;56.976;24.168;2023-12-14T14:59:35;-0.60;99.90
22008;DHT22;11168;56.976;24.168;2023-12-14T15:02:03;-0.60;99.90
22008;DHT22;11168;56.976;24.168;2023-12-14T15:04:30;-0.60;99.90
22008;DHT22;11168;56.976;24.168;2023-12-14T15:06:59;-0.70;99.90
22008;DHT22;11168;56.976;24.168;2023-12-14T15:09:29;-0.60;99.90
22008;DHT22;11168;56.976;24.168;2023-12-14T15:11:57;-0.60;99.90
22008;DHT22;11168;56.976;24.168;2023-12-14T15:14:24;-0.70;99.90
22008;DHT22;11168;56.976;24.168;2023-12-14T15:16:54;-0.60;99.90
22008;DHT22;11168;56.976;24.168;2023-12-14T15:19:24;-0.60;99.90
22008;DHT22;11168;56.976;24.168;2023-12-14T15:21:51;-0.60;99.90
22008;DHT22;11168;56.976;24.168;2023-12-14T15:24:20;-0.60;99.90
22008;DHT22;11168;56.976;24.168;2023-12-14T15:26:48;-0.60;99.90
22008;DHT22;11168;56.976;24.168;2023-12-14T15:29:16;-0.50;99.90
22008;DHT22;11168;56.976;24.168;2023-12-14T15:31:47;-0.50;99.90
22008;DHT22;11168;56.976;24.168;2023-12-14T15:34:16;-0.50;99.90
22008;DHT22;11168;56.976;24.168;2023-12-14T15:36:48;-0.40;99.90
22008;DHT22;11168;56.976;24.168;2023-12-14T15:39:15;-0.40;99.90
22008;DHT22;11168;56.976;24.168;2023-12-14T15:41:42;-0.40;99.90